Time;durP1;ratioP1;P1;durP2;ratioP2;P2;SDS_P1;SDS_P2;PMS_P1;PMS_P2;Temp;Humidity;BMP_temperature;BMP_pressure;BME280_temperature;BME280_humidity;BME280_pressure;Samples;Min_cycle;Max_cycle;Signal;HPM_P1;HPM_P2
2022/01/28 00:05:24;;;;;;;9.50;1.27;;;;;;;5.89;98.83;103155.59;5105879;28;20244;-73
2022/01/28 00:07:50;;;;;;;14.32;2.35;;;;;;;5.86;99.14;103152.72;5100796;28;20106;-73
2022/01/28 00:10:17;;;;;;;20.35;2.47;;;;;;;5.88;98.94;103156.38;5078641;28;20498;-72
2022/01/28 00:15:30;;;;;;;18.98;1.75;;;;;;;5.92;99.51;103161.03;5094707;28;20861;-73
2022/01/28 00:39:34;;;;;;;12.30;1.70;;;;;;;5.90;100.00;103175.66;5102532;28;20059;-73
2022/01/28 00:42:00;;;;;;;26.52;2.30;;;;;;;5.90;100.00;103176.59;5096460;28;20055;-72
2022/01/28 00:44:25;;;;;;;14.82;1.70;;;;;;;5.86;100.00;103176.25;5097659;28;20028;-73
2022/01/28 00:46:51;;;;;;;15.00;2.05;;;;;;;5.90;100.00;103181.81;5098462;28;20033;-72
2022/01/28 00:49:16;;;;;;;13.68;1.30;;;;;;;5.95;100.00;103189.97;5093142;28;20055;-72
2022/01/28 00:51:41;;;;;;;11.82;1.77;;;;;;;5.97;100.00;103192.69;5088187;28;20034;-72
2022/01/28 00:54:07;;;;;;;16.65;3.70;;;;;;;5.93;100.00;103202.03;5099581;28;20058;-73
2022/01/28 00:56:32;;;;;;;13.82;1.88;;;;;;;5.97;100.00;103201.47;5079329;28;20039;-73
2022/01/28 00:58:57;;;;;;;16.92;2.03;;;;;;;6.00;100.00;103208.66;5103122;28;20469;-73
2022/01/28 01:01:23;;;;;;;10.85;2.25;;;;;;;5.98;100.00;103218.09;5103518;28;20502;-72
2022/01/28 01:03:48;;;;;;;10.70;2.53;;;;;;;5.96;100.00;103207.50;5103125;28;20103;-72
2022/01/28 01:06:13;;;;;;;17.95;2.30;;;;;;;5.94;100.00;103203.88;5089854;28;20039;-73
2022/01/28 01:08:39;;;;;;;16.67;2.55;;;;;;;5.90;100.00;103199.19;5110112;28;20471;-73
2022/01/28 01:11:05;;;;;;;13.95;1.63;;;;;;;5.87;100.00;103193.75;5097145;28;20027;-72
2022/01/28 01:13:36;;;;;;;13.27;1.73;;;;;;;5.91;100.00;103198.41;5102112;28;20024;-73
2022/01/28 01:16:02;;;;;;;14.73;2.40;;;;;;;5.93;100.00;103196.81;5084638;28;20023;-73
2022/01/28 01:18:46;;;;;;;14.48;2.05;;;;;;;5.95;100.00;103200.44;5106083;28;20055;-72
2022/01/28 01:21:18;;;;;;;13.65;2.10;;;;;;;5.96;100.00;103207.50;5111709;28;20034;-73
2022/01/28 01:23:51;;;;;;;18.77;2.72;;;;;;;5.96;100.00;103215.31;5080862;28;20030;-73
2022/01/28 01:26:17;;;;;;;14.52;2.08;;;;;;;5.95;100.00;103215.22;5113344;28;20508;-72
2022/01/28 01:28:43;;;;;;;16.63;3.08;;;;;;;5.95;100.00;103218.72;5097010;28;20123;-72
2022/01/28 01:31:13;;;;;;;23.48;3.05;;;;;;;5.99;100.00;103236.50;5096408;28;20046;-72
2022/01/28 01:33:55;;;;;;;15.55;3.13;;;;;;;5.97;100.00;103240.69;5101670;28;20024;-73
2022/01/28 01:36:21;;;;;;;13.05;3.35;;;;;;;5.95;100.00;103242.25;5088685;28;20035;-73
2022/01/28 01:38:47;;;;;;;17.95;2.03;;;;;;;5.91;100.00;103245.44;5103058;28;20031;-71
2022/01/28 01:41:20;;;;;;;15.05;2.95;;;;;;;5.90;100.00;103252.38;5088811;28;20033;-72
2022/01/28 01:44:03;;;;;;;22.17;2.22;;;;;;;5.91;100.00;103253.28;5104321;28;20031;-72
2022/01/28 01:52:03;;;;;;;17.55;1.98;;;;;;;5.89;100.00;103267.94;5099536;28;20551;-73
2022/01/28 01:54:33;;;;;;;11.93;1.77;;;;;;;5.96;100.00;103272.81;5104153;28;20020;-73
2022/01/28 01:56:59;;;;;;;23.30;2.70;;;;;;;6.01;100.00;103266.28;5089396;28;20498;-73
2022/01/28 01:59:24;;;;;;;17.85;2.28;;;;;;;6.06;100.00;103264.00;5089856;28;20024;-73
2022/01/28 02:01:49;;;;;;;15.68;2.40;;;;;;;6.08;100.00;103260.69;5086129;28;20533;-73
2022/01/28 02:04:15;;;;;;;12.23;2.25;;;;;;;6.14;100.00;103275.03;5104674;28;20097;-72
2022/01/28 02:06:40;;;;;;;13.05;1.65;;;;;;;6.14;100.00;103273.31;5103538;28;20023;-72
2022/01/28 02:09:07;;;;;;;18.42;2.10;;;;;;;6.14;100.00;103283.75;5109339;28;20039;-72
2022/01/28 02:11:32;;;;;;;7.95;1.40;;;;;;;6.04;100.00;103270.81;5095652;28;20088;-73
2022/01/28 02:13:58;;;;;;;11.30;1.58;;;;;;;5.98;100.00;103281.75;5098254;28;20827;-72
2022/01/28 02:16:23;;;;;;;15.60;1.75;;;;;;;5.87;100.00;103280.91;5078966;28;20028;-72
2022/01/28 02:18:48;;;;;;;14.18;2.42;;;;;;;5.80;100.00;103282.91;5096108;28;20040;-73
2022/01/28 02:21:16;;;;;;;10.88;1.67;;;;;;;5.73;100.00;103276.31;5111501;27;20036;-72
2022/01/28 02:23:45;;;;;;;11.45;1.65;;;;;;;5.70;100.00;103281.31;5097139;28;20024;-72
2022/01/28 02:26:15;;;;;;;14.90;2.17;;;;;;;5.62;100.00;103278.13;5082665;28;20028;-72
2022/01/28 02:28:44;;;;;;;12.85;2.55;;;;;;;5.60;100.00;103277.06;5095747;28;20415;-72
2022/01/28 02:31:09;;;;;;;17.23;1.80;;;;;;;5.56;100.00;103283.78;5101166;28;20074;-73
2022/01/28 02:33:35;;;;;;;18.17;2.42;;;;;;;5.56;100.00;103288.09;5101897;28;20048;-72
2022/01/28 02:36:06;;;;;;;13.77;2.13;;;;;;;5.55;100.00;103288.91;5103378;28;20058;-72
2022/01/28 02:38:33;;;;;;;17.80;2.20;;;;;;;5.50;100.00;103288.53;5080358;28;20032;-72
2022/01/28 02:41:01;;;;;;;16.58;2.15;;;;;;;5.52;100.00;103286.97;5107523;28;20035;-72
2022/01/28 02:46:02;;;;;;;14.27;1.98;;;;;;;5.52;100.00;103292.19;5101302;28;20422;-72
2022/01/28 02:48:29;;;;;;;16.17;2.85;;;;;;;5.49;100.00;103289.31;5103608;28;20052;-72
2022/01/28 02:53:26;;;;;;;18.73;1.70;;;;;;;5.51;100.00;103285.13;5095585;28;20102;-72
2022/01/28 02:56:02;;;;;;;17.35;1.95;;;;;;;5.49;100.00;103291.94;5091703;28;20039;-72
2022/01/28 02:58:28;;;;;;;18.58;2.38;;;;;;;5.56;100.00;103293.31;5083579;28;20031;-72
2022/01/28 03:00:57;;;;;;;22.80;2.72;;;;;;;5.60;100.00;103295.34;5094269;28;20035;-72
2022/01/28 03:03:23;;;;;;;11.43;1.40;;;;;;;5.58;100.00;103307.41;5100948;28;20031;-72
2022/01/28 03:05:50;;;;;;;21.90;2.70;;;;;;;5.57;100.00;103305.59;5102244;28;20058;-72
2022/01/28 03:08:15;;;;;;;16.05;2.17;;;;;;;5.59;100.00;103304.00;5104998;28;20035;-72
2022/01/28 03:10:48;;;;;;;12.38;1.75;;;;;;;5.62;100.00;103299.00;5107815;28;20031;-72
2022/01/28 03:13:27;;;;;;;14.70;1.95;;;;;;;5.65;100.00;103314.91;5093786;28;20579;-72
2022/01/28 03:15:55;;;;;;;21.10;2.42;;;;;;;5.64;100.00;103312.19;5096898;28;20111;-72
2022/01/28 03:18:30;;;;;;;20.75;2.05;;;;;;;5.64;100.00;103314.81;5105281;28;20027;-72
2022/01/28 03:21:00;;;;;;;18.35;2.05;;;;;;;5.57;100.00;103310.81;5088221;28;20118;-72
2022/01/28 03:23:25;;;;;;;20.65;2.78;;;;;;;5.56;100.00;103314.19;5104368;28;20028;-73
2022/01/28 03:25:51;;;;;;;13.25;1.70;;;;;;;5.52;100.00;103313.06;5108942;28;20065;-72
2022/01/28 03:28:19;;;;;;;17.08;2.03;;;;;;;5.49;100.00;103307.59;5099932;28;20043;-72
2022/01/28 03:30:45;;;;;;;18.38;1.85;;;;;;;5.45;100.00;103307.25;5082215;28;20118;-72
2022/01/28 03:33:10;;;;;;;13.80;2.00;;;;;;;5.46;100.00;103306.47;5088262;28;20555;-72
2022/01/28 03:35:36;;;;;;;14.27;2.08;;;;;;;5.44;100.00;103310.66;5097139;28;20074;-72
2022/01/28 03:38:06;;;;;;;9.80;1.65;;;;;;;5.40;100.00;103309.53;5105909;28;20034;-72
2022/01/28 03:40:35;;;;;;;12.32;1.80;;;;;;;5.43;100.00;103308.84;5091427;28;20023;-72
2022/01/28 03:43:01;;;;;;;23.77;2.88;;;;;;;5.38;100.00;103309.38;5097729;28;20027;-72
2022/01/28 03:45:26;;;;;;;17.23;2.45;;;;;;;5.34;100.00;103306.41;5077290;28;20031;-72
2022/01/28 03:47:52;;;;;;;20.77;2.35;;;;;;;5.25;100.00;103322.28;5099950;28;20117;-71
2022/01/28 03:50:17;;;;;;;19.33;2.10;;;;;;;5.22;100.00;103316.81;5093400;28;20039;-72
2022/01/28 03:52:43;;;;;;;16.70;1.70;;;;;;;5.16;100.00;103321.56;5103367;28;20133;-73
2022/01/28 03:55:09;;;;;;;19.70;2.13;;;;;;;5.12;100.00;103330.84;5098185;28;20028;-73
2022/01/28 03:57:34;;;;;;;25.40;4.43;;;;;;;5.10;100.00;103319.38;5078662;28;20539;-72
2022/01/28 04:00:00;;;;;;;7.90;1.67;;;;;;;5.03;100.00;103325.81;5098765;28;20028;-73
2022/01/28 04:02:29;;;;;;;13.18;1.90;;;;;;;5.00;100.00;103328.16;5101489;28;20113;-72
2022/01/28 04:12:52;;;;;;;16.73;1.58;;;;;;;5.02;100.00;103318.78;5095109;28;20079;-72
2022/01/28 04:17:43;;;;;;;16.77;1.63;;;;;;;4.95;100.00;103332.13;5103687;28;20035;-73
2022/01/28 04:20:09;;;;;;;13.98;1.40;;;;;;;4.91;100.00;103332.69;5076255;28;20040;-73
2022/01/28 04:22:34;;;;;;;13.88;1.63;;;;;;;4.85;100.00;103337.38;5097644;28;20468;-73
2022/01/28 04:25:00;;;;;;;19.33;2.00;;;;;;;4.79;100.00;103352.53;5108014;28;20046;-72
2022/01/28 04:27:25;;;;;;;9.00;1.38;;;;;;;4.86;100.00;103349.66;5080675;28;20036;-72
2022/01/28 04:29:51;;;;;;;14.48;1.67;;;;;;;4.89;100.00;103357.72;5097525;28;20020;-73
2022/01/28 04:32:18;;;;;;;10.38;2.28;;;;;;;4.89;100.00;103355.09;5100415;28;20074;-73
2022/01/28 04:34:44;;;;;;;6.95;1.30;;;;;;;4.87;100.00;103362.81;5107678;28;22527;-72
2022/01/28 04:40:00;;;;;;;16.02;1.63;;;;;;;4.92;100.00;103363.16;5101805;28;20108;-72
2022/01/28 04:45:23;;;;;;;18.45;1.98;;;;;;;4.86;100.00;103368.81;5100845;28;20118;-73
2022/01/28 04:48:10;;;;;;;18.00;2.60;;;;;;;4.83;100.00;103378.06;5099387;28;20085;-72
2022/01/28 04:50:57;;;;;;;15.65;1.95;;;;;;;4.78;100.00;103369.88;5104027;28;20032;-71
2022/01/28 04:56:43;;;;;;;14.43;1.83;;;;;;;4.66;100.00;103380.22;5070995;28;20048;-73
2022/01/28 05:05:31;;;;;;;12.52;1.88;;;;;;;4.56;100.00;103377.69;5104399;28;20024;-73
2022/01/28 05:26:02;;;;;;;10.95;1.60;;;;;;;4.08;100.00;103394.56;5101722;28;20518;-72
2022/01/28 05:28:27;;;;;;;15.95;1.92;;;;;;;4.03;100.00;103403.69;5096395;28;20020;-72
2022/01/28 05:30:52;;;;;;;15.07;1.73;;;;;;;4.14;100.00;103404.59;5107472;28;20078;-72
2022/01/28 05:33:18;;;;;;;18.35;2.42;;;;;;;4.13;100.00;103405.38;5102686;28;20039;-73
2022/01/28 05:35:43;;;;;;;22.65;2.22;;;;;;;4.11;100.00;103409.53;5101052;28;20433;-73
2022/01/28 05:38:09;;;;;;;10.57;1.60;;;;;;;4.05;100.00;103404.72;5107149;28;20031;-72
2022/01/28 05:40:34;;;;;;;16.42;1.83;;;;;;;3.99;100.00;103399.00;5103277;28;20436;-72
2022/01/28 05:42:59;;;;;;;7.07;1.63;;;;;;;3.95;100.00;103400.44;5077519;28;20039;-73
2022/01/28 05:45:25;;;;;;;21.10;1.83;;;;;;;4.03;100.00;103408.91;5097871;28;20089;-72
2022/01/28 05:47:50;;;;;;;24.08;2.20;;;;;;;4.11;100.00;103407.88;5077335;28;20507;-72
2022/01/28 05:50:15;;;;;;;14.75;1.70;;;;;;;4.13;100.00;103406.28;5098301;28;20375;-72
2022/01/28 05:52:41;;;;;;;23.20;2.05;;;;;;;4.10;100.00;103405.13;5090302;28;20179;-72
2022/01/28 05:55:07;;;;;;;11.80;1.70;;;;;;;4.07;100.00;103404.84;5109044;28;20102;-72
2022/01/28 05:57:32;;;;;;;11.82;2.10;;;;;;;4.01;100.00;103407.84;5103043;28;20055;-72
2022/01/28 05:59:57;;;;;;;10.30;1.92;;;;;;;3.96;100.00;103428.31;5107392;28;20028;-72
2022/01/28 06:02:22;;;;;;;7.68;1.23;;;;;;;3.89;100.00;103425.94;5097661;28;20066;-73
2022/01/28 06:04:48;;;;;;;19.05;2.13;;;;;;;3.82;100.00;103427.09;5095777;28;20046;-72
2022/01/28 06:07:13;;;;;;;13.02;1.85;;;;;;;3.75;100.00;103427.38;5100917;28;20043;-73
2022/01/28 06:09:39;;;;;;;10.85;1.70;;;;;;;3.68;100.00;103431.13;5111011;28;20472;-73
2022/01/28 06:12:05;;;;;;;15.10;1.95;;;;;;;3.64;100.00;103438.56;5101076;28;20434;-73
2022/01/28 06:14:30;;;;;;;9.98;1.30;;;;;;;3.60;100.00;103442.59;5094972;28;20036;-73
2022/01/28 06:16:55;;;;;;;13.57;1.42;;;;;;;3.58;100.00;103441.56;5080048;28;20027;-72
2022/01/28 06:19:21;;;;;;;13.15;1.65;;;;;;;3.50;100.00;103442.53;5099801;28;20024;-72
2022/01/28 06:21:46;;;;;;;15.35;2.17;;;;;;;3.42;100.00;103449.72;5099468;28;20031;-73
2022/01/28 06:24:11;;;;;;;18.42;1.88;;;;;;;3.37;100.00;103458.78;5106971;28;20039;-73
2022/01/28 06:26:37;;;;;;;23.00;4.20;;;;;;;3.30;100.00;103457.34;5098052;28;20409;-73
2022/01/28 06:29:02;;;;;;;11.95;2.10;;;;;;;3.25;100.00;103473.31;5096406;28;20523;-72
2022/01/28 06:31:27;;;;;;;15.13;1.63;;;;;;;3.21;100.00;103474.72;5084051;28;20483;-72
2022/01/28 06:33:53;;;;;;;14.05;2.38;;;;;;;3.16;100.00;103469.13;5084655;28;20028;-70
2022/01/28 06:36:20;;;;;;;28.80;3.15;;;;;;;3.11;100.00;103469.50;5084668;28;20475;-72
2022/01/28 06:38:46;;;;;;;10.43;1.85;;;;;;;3.06;100.00;103484.69;5087193;28;20027;-72
2022/01/28 06:41:11;;;;;;;13.98;2.30;;;;;;;3.01;100.00;103489.47;5087328;28;20336;-72
2022/01/28 06:43:37;;;;;;;19.50;2.03;;;;;;;3.00;100.00;103502.34;5099684;28;20467;-72
2022/01/28 06:46:02;;;;;;;21.02;1.65;;;;;;;2.93;100.00;103495.69;5081065;28;20031;-71
2022/01/28 06:48:27;;;;;;;15.38;3.17;;;;;;;2.85;100.00;103507.06;5093729;28;20062;-72
2022/01/28 06:50:53;;;;;;;22.02;4.38;;;;;;;2.84;100.00;103505.25;5102101;28;20103;-71
2022/01/28 06:53:18;;;;;;;17.83;3.83;;;;;;;2.77;100.00;103508.03;5105001;28;20032;-72
2022/01/28 06:55:45;;;;;;;17.30;3.78;;;;;;;2.74;100.00;103512.97;5085769;28;20074;-72
2022/01/28 06:58:10;;;;;;;15.63;3.42;;;;;;;2.70;100.00;103515.28;5084823;28;20035;-72
2022/01/28 07:00:40;;;;;;;23.05;2.92;;;;;;;2.69;100.00;103520.34;5099637;28;20023;-71
2022/01/28 07:03:07;;;;;;;21.13;3.67;;;;;;;2.63;100.00;103515.50;5088697;28;20040;-71
2022/01/28 07:05:33;;;;;;;25.60;3.08;;;;;;;2.61;100.00;103524.84;5096864;28;20027;-72
2022/01/28 07:07:58;;;;;;;12.20;2.47;;;;;;;2.59;100.00;103529.00;5096589;28;20035;-73
2022/01/28 07:10:24;;;;;;;16.98;2.88;;;;;;;2.55;100.00;103525.94;5106247;28;20471;-73
2022/01/28 07:12:49;;;;;;;16.20;2.42;;;;;;;2.49;100.00;103531.50;5097318;28;20027;-72
2022/01/28 07:15:15;;;;;;;10.55;2.90;;;;;;;2.47;100.00;103528.75;5099182;28;20103;-73
2022/01/28 07:17:41;;;;;;;17.50;3.08;;;;;;;2.41;100.00;103530.78;5095341;28;20031;-73
2022/01/28 07:20:07;;;;;;;22.02;3.22;;;;;;;2.39;100.00;103523.59;5081379;28;20027;-73
2022/01/28 07:22:32;;;;;;;11.07;2.38;;;;;;;2.36;100.00;103524.22;5081344;28;20145;-72
2022/01/28 07:24:57;;;;;;;27.20;3.40;;;;;;;2.32;100.00;103523.06;5105000;28;20455;-73
2022/01/28 07:27:23;;;;;;;12.00;2.08;;;;;;;2.36;100.00;103527.75;5084282;28;20055;-72
2022/01/28 07:29:50;;;;;;;16.00;2.45;;;;;;;2.34;100.00;103531.88;5102537;28;20086;-73
2022/01/28 07:32:16;;;;;;;12.07;2.30;;;;;;;2.34;100.00;103526.69;5075909;28;20028;-73
2022/01/28 07:34:41;;;;;;;16.55;2.55;;;;;;;2.35;100.00;103523.34;5095964;28;20020;-71
2022/01/28 07:37:07;;;;;;;15.80;2.47;;;;;;;2.30;100.00;103527.19;5100382;28;20437;-74
2022/01/28 07:39:32;;;;;;;19.25;3.22;;;;;;;2.31;100.00;103536.81;5104288;28;20384;-73
2022/01/28 07:41:58;;;;;;;19.27;3.80;;;;;;;2.34;100.00;103537.09;5104405;28;20020;-71
2022/01/28 07:44:23;;;;;;;14.82;2.67;;;;;;;2.34;100.00;103541.38;5106021;27;20065;-73
2022/01/28 07:46:48;;;;;;;18.15;2.70;;;;;;;2.34;100.00;103550.06;5099289;27;20038;-71
2022/01/28 07:49:14;;;;;;;15.07;2.95;;;;;;;2.38;100.00;103553.88;5118779;27;20043;-71
2022/01/28 07:51:41;;;;;;;15.75;2.35;;;;;;;2.39;100.00;103562.59;5092430;28;20027;-72
2022/01/28 07:54:07;;;;;;;13.18;2.60;;;;;;;2.42;100.00;103569.00;5110894;27;20410;-74
2022/01/28 07:56:33;;;;;;;13.32;2.60;;;;;;;2.40;100.00;103577.41;5095149;28;20038;-71
2022/01/28 07:58:58;;;;;;;17.25;2.60;;;;;;;2.37;100.00;103570.25;5112736;27;20015;-72
2022/01/28 08:01:23;;;;;;;19.92;3.50;;;;;;;2.36;100.00;103574.53;5100314;27;20494;-71
2022/01/28 08:03:49;;;;;;;21.27;3.05;;;;;;;2.39;100.00;103580.78;5097667;28;20075;-71
2022/01/28 08:06:14;;;;;;;16.02;3.05;;;;;;;2.42;100.00;103575.88;5116704;27;20048;-71
2022/01/28 08:08:39;;;;;;;15.98;2.83;;;;;;;2.42;100.00;103582.00;5083939;28;20122;-73
2022/01/28 08:11:05;;;;;;;15.85;2.88;;;;;;;2.45;100.00;103583.97;5097765;28;20028;-71
2022/01/28 08:13:30;;;;;;;19.85;4.35;;;;;;;2.49;100.00;103583.47;5117569;27;20035;-72
2022/01/28 08:15:55;;;;;;;11.98;3.28;;;;;;;2.55;100.00;103583.13;5117662;28;20099;-70
2022/01/28 08:18:20;;;;;;;18.90;3.53;;;;;;;2.58;100.00;103589.53;5109972;28;20016;-70
2022/01/28 08:20:46;;;;;;;18.30;3.03;;;;;;;2.65;100.00;103596.22;5096359;28;20067;-71
2022/01/28 08:23:14;;;;;;;11.05;3.08;;;;;;;2.67;100.00;103600.81;5113393;27;20060;-72
2022/01/28 08:25:39;;;;;;;13.15;4.30;;;;;;;2.73;100.00;103600.47;5098281;28;20550;-71
2022/01/28 08:28:05;;;;;;;23.63;3.90;;;;;;;2.80;100.00;103601.94;5105329;28;20024;-72
2022/01/28 08:30:32;;;;;;;12.50;3.40;;;;;;;2.85;100.00;103598.09;5106374;28;20387;-71
2022/01/28 08:32:58;;;;;;;19.23;3.15;;;;;;;2.93;100.00;103604.91;5115784;28;20035;-71
2022/01/28 08:35:34;;;;;;;14.75;3.05;;;;;;;3.00;100.00;103602.09;5104222;28;20032;-72
2022/01/28 08:38:00;;;;;;;12.88;2.60;;;;;;;3.08;100.00;103607.06;5098445;28;20023;-71
2022/01/28 08:40:27;;;;;;;28.20;4.63;;;;;;;3.15;100.00;103606.88;5121934;28;20040;-72
2022/01/28 08:42:54;;;;;;;20.67;3.85;;;;;;;3.26;100.00;103613.97;5085442;28;20111;-72
2022/01/28 08:45:19;;;;;;;19.30;4.10;;;;;;;3.37;100.00;103607.16;5108843;27;20431;-72
2022/01/28 08:47:45;;;;;;;13.18;2.80;;;;;;;3.47;100.00;103614.09;5099031;28;20048;-71
2022/01/28 08:50:12;;;;;;;22.60;3.78;;;;;;;3.56;100.00;103612.31;5098787;28;20036;-73
2022/01/28 08:52:37;;;;;;;18.08;3.25;;;;;;;3.66;100.00;103620.19;5110597;28;20416;-72
2022/01/28 08:55:04;;;;;;;24.08;3.35;;;;;;;3.77;100.00;103615.94;5094974;28;20111;-72
2022/01/28 08:57:30;;;;;;;15.15;3.10;;;;;;;3.87;100.00;103617.69;5095284;28;20032;-73
2022/01/28 08:59:56;;;;;;;20.10;3.13;;;;;;;3.95;100.00;103616.66;5081521;28;20493;-73
2022/01/28 09:02:21;;;;;;;18.73;4.70;;;;;;;4.05;100.00;103608.84;5097178;28;20040;-72
2022/01/28 09:04:47;;;;;;;12.85;3.00;;;;;;;4.16;100.00;103611.50;5108176;28;20371;-72
2022/01/28 09:07:13;;;;;;;22.58;3.78;;;;;;;4.24;100.00;103613.09;5098823;28;20125;-73
2022/01/28 09:09:48;;;;;;;15.05;3.78;;;;;;;4.35;100.00;103622.78;5075651;28;20032;-72
2022/01/28 09:12:48;;;;;;;16.83;3.55;;;;;;;4.47;100.00;103627.22;5102987;28;20024;-71
2022/01/28 09:15:07;;;;;;;17.13;2.92;;;;;;;4.63;100.00;103635.56;5094847;27;20150;-72
2022/01/28 09:17:33;;;;;;;29.48;4.13;;;;;;;4.80;100.00;103638.69;5097754;27;20028;-72
2022/01/28 09:19:58;;;;;;;13.95;3.67;;;;;;;5.01;100.00;103642.22;5085571;28;20035;-73
2022/01/28 09:22:24;;;;;;;20.05;3.45;;;;;;;5.18;100.00;103639.34;5099488;28;20028;-74
2022/01/28 09:24:50;;;;;;;16.52;2.95;;;;;;;5.34;100.00;103636.28;5100531;27;20387;-72
2022/01/28 09:27:17;;;;;;;15.27;3.55;;;;;;;5.60;100.00;103634.91;5079739;28;20022;-72
2022/01/28 09:29:43;;;;;;;14.52;3.00;;;;;;;6.01;100.00;103644.34;5088186;28;20070;-72
2022/01/28 09:32:08;;;;;;;17.40;3.13;;;;;;;6.52;100.00;103637.91;5098526;27;20039;-72
2022/01/28 09:34:34;;;;;;;11.38;2.72;;;;;;;7.02;100.00;103633.03;5105718;27;20046;-72
2022/01/28 09:36:59;;;;;;;20.33;3.20;;;;;;;7.56;100.00;103628.31;5087176;28;20035;-72
2022/01/28 09:39:24;;;;;;;27.13;2.90;;;;;;;8.13;97.14;103621.94;5097406;28;20529;-73
2022/01/28 09:41:52;;;;;;;11.10;3.08;;;;;;;8.63;94.10;103623.72;5081009;28;20019;-73
2022/01/28 09:44:20;;;;;;;23.92;4.88;;;;;;;8.82;91.14;103617.09;5098111;27;20016;-72
2022/01/28 09:46:46;;;;;;;14.63;2.10;;;;;;;9.06;89.50;103608.28;5109199;27;20019;-71
2022/01/28 09:49:12;;;;;;;15.18;2.38;;;;;;;9.29;89.54;103603.63;5091286;27;20122;-73
2022/01/28 09:51:38;;;;;;;16.60;2.55;;;;;;;9.48;86.82;103597.88;5103889;27;20127;-71
2022/01/28 09:54:03;;;;;;;17.70;2.65;;;;;;;9.57;87.44;103592.31;5084174;28;20468;-71
2022/01/28 09:56:30;;;;;;;17.50;2.75;;;;;;;9.62;85.97;103589.19;5102137;27;20418;-71
2022/01/28 09:58:55;;;;;;;18.50;2.70;;;;;;;9.62;87.21;103591.81;5098084;27;20472;-71
2022/01/28 10:01:21;;;;;;;19.05;3.10;;;;;;;9.71;86.86;103595.84;5101303;27;20020;-71
2022/01/28 10:03:59;;;;;;;13.50;2.10;;;;;;;9.82;84.89;103588.66;5083591;28;20098;-71
2022/01/28 10:06:35;;;;;;;13.38;2.33;;;;;;;10.03;84.63;103597.91;5110138;27;20036;-72
2022/01/28 10:09:10;;;;;;;12.98;1.65;;;;;;;10.27;84.13;103593.28;5112414;27;20027;-71
2022/01/28 10:11:42;;;;;;;13.23;2.03;;;;;;;10.23;81.80;103585.09;5089161;28;20069;-72
2022/01/28 10:14:13;;;;;;;8.68;1.85;;;;;;;10.40;79.23;103592.31;5109027;27;20026;-72
2022/01/28 10:16:38;;;;;;;7.85;1.60;;;;;;;10.64;79.72;103597.28;5098336;27;20023;-71
2022/01/28 10:19:09;;;;;;;16.10;2.10;;;;;;;10.70;77.73;103591.47;5121071;27;20053;-71
2022/01/28 10:21:43;;;;;;;21.35;1.90;;;;;;;10.86;78.87;103607.38;5103147;27;20036;-71
2022/01/28 10:24:20;;;;;;;9.77;2.17;;;;;;;11.12;76.77;103598.41;5079723;28;20468;-70
2022/01/28 10:26:48;;;;;;;16.58;1.60;;;;;;;11.02;74.83;103605.69;5104376;27;20015;-72
2022/01/28 10:29:24;;;;;;;13.38;1.83;;;;;;;11.15;76.20;103602.97;5082084;28;20032;-71
2022/01/28 10:31:51;;;;;;;10.77;1.90;;;;;;;11.21;74.82;103610.31;5101453;28;20023;-72
2022/01/28 10:34:21;;;;;;;11.05;1.98;;;;;;;11.34;73.59;103594.38;5107952;27;20420;-72
2022/01/28 10:36:48;;;;;;;10.02;2.00;;;;;;;11.59;73.03;103598.41;5083181;28;20418;-73
2022/01/28 10:39:22;;;;;;;6.65;1.35;;;;;;;11.95;72.42;103603.97;5110178;27;20039;-73
2022/01/28 10:41:57;;;;;;;12.80;2.13;;;;;;;12.16;72.59;103596.31;5123996;27;20038;-74
2022/01/28 10:44:24;;;;;;;8.43;2.67;;;;;;;12.20;72.13;103600.06;5097298;27;20410;-73
2022/01/28 10:46:55;;;;;;;11.07;1.92;;;;;;;12.47;72.06;103595.34;5102006;27;20023;-73
2022/01/28 10:49:28;;;;;;;18.17;2.25;;;;;;;12.37;71.01;103593.94;5098613;27;20043;-73
2022/01/28 10:51:53;;;;;;;12.20;2.10;;;;;;;12.28;71.09;103596.09;5096213;27;20032;-73
2022/01/28 10:54:21;;;;;;;14.95;1.38;;;;;;;12.39;71.48;103592.28;5106248;27;20324;-72
2022/01/28 10:56:59;;;;;;;10.32;1.67;;;;;;;12.21;71.58;103593.91;5099129;27;20094;-72
2022/01/28 10:59:27;;;;;;;14.68;2.63;;;;;;;11.84;71.54;103591.88;5082031;28;20054;-73
2022/01/28 11:01:53;;;;;;;10.88;1.58;;;;;;;11.24;74.79;103599.94;5100252;27;20024;-72
2022/01/28 11:04:20;;;;;;;13.05;1.98;;;;;;;10.52;76.78;103604.44;5081034;27;20020;-74
2022/01/28 11:06:48;;;;;;;10.98;1.95;;;;;;;10.20;78.09;103605.94;5105417;27;20487;-73
2022/01/28 11:09:16;;;;;;;12.93;1.77;;;;;;;9.85;78.34;103588.81;5086883;28;20023;-72
2022/01/28 11:11:42;;;;;;;9.43;1.85;;;;;;;9.70;79.81;103597.56;5097747;27;20384;-74
2022/01/28 11:14:08;;;;;;;11.68;2.05;;;;;;;10.19;80.37;103606.78;5099688;27;20031;-73
2022/01/28 11:16:34;;;;;;;11.38;2.40;;;;;;;11.26;78.67;103588.66;5104390;27;20078;-73
2022/01/28 11:19:00;;;;;;;9.30;1.65;;;;;;;12.35;74.63;103579.75;5099115;27;20032;-73
2022/01/28 11:22:01;;;;;;;15.88;2.10;;;;;;;13.43;70.38;103561.47;5098878;28;20071;-73
2022/01/28 11:25:06;;;;;;;9.10;1.73;;;;;;;13.90;65.49;103553.94;5103974;27;20376;-73
2022/01/28 11:27:34;;;;;;;13.32;2.60;;;;;;;14.05;64.80;103543.16;5099715;28;20035;-73
2022/01/28 11:30:28;;;;;;;11.98;2.30;;;;;;;13.99;66.49;103554.38;5106606;27;20042;-73
2022/01/28 11:33:01;;;;;;;8.90;2.03;;;;;;;14.37;63.41;103541.06;5097897;27;20020;-72
2022/01/28 11:35:37;;;;;;;19.35;2.28;;;;;;;14.64;61.08;103535.19;5096336;28;20024;-72
2022/01/28 11:38:24;;;;;;;9.45;1.77;;;;;;;14.87;60.58;103538.81;5077289;28;20036;-74
2022/01/28 11:40:54;;;;;;;6.90;1.50;;;;;;;15.05;58.06;103528.06;5106154;27;20390;-73
2022/01/28 11:43:30;;;;;;;11.30;2.50;;;;;;;14.98;58.27;103532.22;5090065;28;20046;-73
2022/01/28 11:46:31;;;;;;;8.25;1.70;;;;;;;14.67;58.20;103519.41;5081763;28;20028;-71
2022/01/28 11:48:56;;;;;;;11.80;2.15;;;;;;;14.45;61.14;103522.88;5097167;28;20035;-72
2022/01/28 11:51:32;;;;;;;12.18;2.17;;;;;;;14.66;60.94;103530.84;5101276;27;20028;-73
2022/01/28 11:53:59;;;;;;;15.98;3.13;;;;;;;14.70;59.67;103529.25;5078308;28;20501;-71
2022/01/28 11:56:26;;;;;;;9.80;2.05;;;;;;;15.03;59.44;103524.47;5103987;27;20052;-71
2022/01/28 11:59:08;;;;;;;8.60;2.20;;;;;;;15.13;56.62;103517.78;5128846;27;20069;-73
2022/01/28 12:01:36;;;;;;;14.27;1.80;;;;;;;14.56;57.56;103512.72;5105125;28;20039;-71
2022/01/28 12:04:27;;;;;;;10.50;2.72;;;;;;;13.15;60.45;103512.47;5075996;28;20119;-72
2022/01/28 12:06:58;;;;;;;12.18;2.35;;;;;;;12.24;65.50;103507.00;5105153;27;20066;-72
2022/01/28 12:09:26;;;;;;;9.65;2.17;;;;;;;11.62;66.95;103508.91;5079334;28;20040;-71
2022/01/28 12:11:51;;;;;;;15.73;2.38;;;;;;;11.52;68.18;103496.06;5099606;28;20028;-72
2022/01/28 12:14:18;;;;;;;12.57;2.13;;;;;;;12.51;65.87;103488.09;5095061;28;20024;-71
2022/01/28 12:16:45;;;;;;;9.43;2.15;;;;;;;13.39;63.68;103487.16;5110891;27;20084;-72
2022/01/28 12:19:21;;;;;;;13.45;2.00;;;;;;;14.16;60.20;103473.06;5098792;28;20024;-71
2022/01/28 12:22:08;;;;;;;18.42;3.13;;;;;;;14.49;59.09;103456.81;5097082;28;20502;-72
2022/01/28 12:24:34;;;;;;;12.20;2.25;;;;;;;13.43;59.96;103471.53;5110168;28;20035;-72
2022/01/28 12:27:05;;;;;;;10.82;2.63;;;;;;;12.96;62.49;103471.00;5094756;28;20015;-72
2022/01/28 12:29:36;;;;;;;12.15;3.25;;;;;;;13.45;63.76;103479.53;5089045;28;20105;-71
2022/01/28 12:32:04;;;;;;;12.48;2.90;;;;;;;14.19;61.81;103460.78;5094623;28;20468;-72
2022/01/28 12:34:29;;;;;;;14.30;3.17;;;;;;;14.48;59.62;103449.69;5104919;28;20020;-72
2022/01/28 12:36:58;;;;;;;13.10;3.28;;;;;;;14.74;58.30;103436.66;5114009;27;20079;-72
2022/01/28 12:39:43;;;;;;;11.32;3.60;;;;;;;14.43;59.24;103442.41;5083052;28;20077;-72
2022/01/28 12:42:22;;;;;;;14.07;3.63;;;;;;;14.29;59.58;103447.13;5099474;28;20071;-71
2022/01/28 12:44:56;;;;;;;12.02;4.22;;;;;;;14.86;58.77;103440.69;5093682;28;20052;-72
2022/01/28 12:47:22;;;;;;;15.00;4.30;;;;;;;14.76;57.82;103427.03;5083116;28;20028;-71